createdAt,value
2022-11-20T00:00:45.440Z,4.7
2022-11-20T00:01:48.404Z,4.7
2022-11-20T00:02:51.734Z,4.7
2022-11-20T00:03:54.892Z,4.8
2022-11-20T00:04:57.599Z,4.7
2022-11-20T00:06:01.335Z,4.8
2022-11-20T00:07:04.602Z,4.7
2022-11-20T00:08:07.482Z,4.7
2022-11-20T00:09:10.281Z,4.7
2022-11-20T00:10:12.810Z,4.7
2022-11-20T00:11:17.152Z,4.7
2022-11-20T00:12:19.551Z,4.7
2022-11-20T00:13:22.305Z,4.7
2022-11-20T00:14:25.364Z,4.7
2022-11-20T00:15:28.403Z,4.8
2022-11-20T00:16:31.176Z,4.8
2022-11-20T00:17:33.669Z,4.8
2022-11-20T00:18:36.718Z,4.8
2022-11-20T00:19:39.770Z,4.7
2022-11-20T00:20:42.840Z,4.7
2022-11-20T00:21:46.484Z,4.7
2022-11-20T00:22:48.980Z,4.8
2022-11-20T00:23:53.134Z,4.8
2022-11-20T00:24:58.740Z,4.8
2022-11-20T00:26:02.179Z,4.7
2022-11-20T00:27:05.762Z,4.8
2022-11-20T00:28:09.252Z,4.7
2022-11-20T00:29:12.118Z,4.7
2022-11-20T00:30:16.265Z,4.8
2022-11-20T00:31:19.326Z,4.8
2022-11-20T00:32:21.185Z,4.8
2022-11-20T00:33:23.609Z,4.8
2022-11-20T00:34:26.311Z,4.8
2022-11-20T00:35:28.792Z,4.8
2022-11-20T00:36:31.279Z,4.8
2022-11-20T00:37:34.711Z,4.8
2022-11-20T00:38:37.902Z,4.8
2022-11-20T00:39:41.613Z,4.8
2022-11-20T00:40:45.102Z,4.8
2022-11-20T00:41:57.277Z,4.8
2022-11-20T00:43:00.835Z,4.8
2022-11-20T00:44:03.883Z,4.8
2022-11-20T00:45:06.677Z,4.8
2022-11-20T00:46:10.054Z,4.8
2022-11-20T00:47:13.166Z,4.8
2022-11-20T00:48:16.375Z,4.8
2022-11-20T00:49:21.143Z,4.8
2022-11-20T00:50:24.288Z,4.8
2022-11-20T00:51:27.041Z,4.8
2022-11-20T00:52:30.461Z,4.8
2022-11-20T00:53:33.633Z,4.8
2022-11-20T00:54:36.630Z,4.9
2022-11-20T00:55:38.576Z,4.9
2022-11-20T00:56:41.356Z,4.8
2022-11-20T00:57:44.531Z,4.9
2022-11-20T00:58:48.268Z,4.9
2022-11-20T00:59:50.692Z,4.8
2022-11-20T01:00:53.734Z,4.9
2022-11-20T01:01:56.934Z,4.9
2022-11-20T01:02:59.350Z,4.9
2022-11-20T01:04:02.434Z,4.9
2022-11-20T01:05:05.642Z,4.9
2022-11-20T01:06:08.897Z,4.9
2022-11-20T01:07:11.822Z,4.9
2022-11-20T01:08:15.313Z,4.9
2022-11-20T01:09:19.438Z,4.9
2022-11-20T01:10:23.533Z,4.9
2022-11-20T01:11:26.783Z,4.9
2022-11-20T01:12:29.864Z,4.9
2022-11-20T01:13:32.090Z,5
2022-11-20T01:14:35.337Z,4.9
2022-11-20T01:15:38.513Z,4.9
2022-11-20T01:16:41.040Z,4.9
2022-11-20T01:17:44.167Z,4.9
2022-11-20T01:18:47.021Z,4.9
2022-11-20T01:19:49.720Z,4.9
2022-11-20T01:20:52.389Z,4.9
2022-11-20T01:21:55.755Z,4.9
2022-11-20T01:22:58.322Z,4.8
2022-11-20T01:24:01.716Z,4.9
2022-11-20T01:25:04.417Z,4.8
2022-11-20T01:26:07.744Z,4.8
2022-11-20T01:27:10.797Z,4.8
2022-11-20T01:28:13.377Z,4.8
2022-11-20T01:29:16.397Z,4.8
2022-11-20T01:30:19.648Z,4.8
2022-11-20T01:31:22.997Z,4.8
2022-11-20T01:32:25.573Z,4.8
2022-11-20T01:33:28.132Z,4.8
2022-11-20T01:34:30.819Z,4.8
2022-11-20T01:35:33.316Z,4.8
2022-11-20T01:36:37.021Z,4.8
2022-11-20T01:37:39.174Z,4.9
2022-11-20T01:38:42.021Z,4.8
2022-11-20T01:39:45.267Z,4.9
2022-11-20T01:40:48.945Z,4.9
2022-11-20T01:41:51.715Z,4.9
2022-11-20T01:42:54.500Z,4.9
2022-11-20T01:43:57.650Z,4.9
2022-11-20T01:45:00.703Z,4.9
2022-11-20T01:46:04.124Z,4.9
2022-11-20T01:47:06.769Z,4.9
2022-11-20T01:48:09.620Z,4.9
2022-11-20T01:49:12.588Z,4.9
2022-11-20T01:50:14.832Z,4.9
2022-11-20T01:51:17.706Z,4.9
2022-11-20T01:52:20.628Z,4.9
2022-11-20T01:53:23.703Z,5
2022-11-20T01:54:26.312Z,5
2022-11-20T01:55:28.808Z,5
2022-11-20T01:56:31.588Z,5
2022-11-20T01:57:33.812Z,5
2022-11-20T01:58:36.808Z,5
2022-11-20T01:59:39.503Z,5
2022-11-20T02:00:42.383Z,5
2022-11-20T02:01:46.059Z,5
2022-11-20T02:02:49.540Z,5
2022-11-20T02:03:52.051Z,5
2022-11-20T02:04:54.549Z,5
2022-11-20T02:05:57.054Z,5
2022-11-20T02:06:59.341Z,5
2022-11-20T02:08:02.316Z,5
2022-11-20T02:09:04.451Z,5
2022-11-20T02:10:07.290Z,5
2022-11-20T02:11:10.264Z,5
2022-11-20T02:12:12.681Z,5
2022-11-20T02:13:16.024Z,5
2022-11-20T02:14:18.961Z,5
2022-11-20T02:15:30.516Z,5
2022-11-20T02:16:33.710Z,5
2022-11-20T02:17:36.962Z,5
2022-11-20T02:18:39.738Z,5
2022-11-20T02:19:42.509Z,5
2022-11-20T02:20:45.484Z,5
2022-11-20T02:21:48.551Z,5
2022-11-20T02:22:51.045Z,5
2022-11-20T02:23:53.825Z,5
2022-11-20T02:24:56.053Z,5
2022-11-20T02:25:58.833Z,5
2022-11-20T02:27:01.609Z,4.9
2022-11-20T02:28:04.375Z,5
2022-11-20T02:29:07.350Z,5
2022-11-20T02:30:10.404Z,5
2022-11-20T02:31:13.304Z,5
2022-11-20T02:32:16.271Z,5
2022-11-20T02:33:19.105Z,5
2022-11-20T02:34:22.811Z,5
2022-11-20T02:35:25.886Z,5
2022-11-20T02:36:29.098Z,5
2022-11-20T02:37:32.544Z,5
2022-11-20T02:38:35.047Z,5.1
2022-11-20T02:39:37.211Z,5
2022-11-20T02:40:40.622Z,5.1
2022-11-20T02:41:43.153Z,5
2022-11-20T02:42:46.510Z,5.1
2022-11-20T02:43:49.906Z,5.1
2022-11-20T02:44:53.314Z,5.1
2022-11-20T02:45:56.182Z,5.1
2022-11-20T02:46:59.159Z,5.1
2022-11-20T02:48:01.668Z,5.1
2022-11-20T02:49:04.521Z,5.1
2022-11-20T02:50:07.617Z,5.1
2022-11-20T02:51:10.389Z,5.1
2022-11-20T02:52:13.824Z,5.1
2022-11-20T02:53:16.604Z,5.1
2022-11-20T02:54:19.626Z,5.1
2022-11-20T02:55:22.544Z,5.1
2022-11-20T02:56:25.023Z,5.1
2022-11-20T02:57:27.442Z,5.1
2022-11-20T02:58:30.499Z,5.1
2022-11-20T02:59:33.850Z,5.1
2022-11-20T03:00:36.932Z,5.1
2022-11-20T03:01:39.902Z,5.1
2022-11-20T03:02:42.925Z,5.1
2022-11-20T03:03:45.623Z,5.1
2022-11-20T03:04:48.680Z,5.1
2022-11-20T03:05:51.250Z,5.1
2022-11-20T03:06:54.315Z,5.1
2022-11-20T03:07:57.650Z,5.1
2022-11-20T03:09:01.301Z,5.1
2022-11-20T03:10:03.674Z,5.1
2022-11-20T03:11:06.758Z,5.1
2022-11-20T03:12:10.189Z,5.1
2022-11-20T03:13:13.398Z,5.1
2022-11-20T03:14:16.456Z,5.1
2022-11-20T03:15:19.430Z,5.1
2022-11-20T03:16:22.488Z,5.1
2022-11-20T03:17:25.280Z,5.1
2022-11-20T03:18:28.046Z,5.1
2022-11-20T03:19:31.160Z,5.1
2022-11-20T03:20:33.826Z,5.1
2022-11-20T03:21:36.811Z,5.1
2022-11-20T03:22:39.779Z,5.1
2022-11-20T03:23:42.764Z,5.1
2022-11-20T03:24:45.351Z,5.2
2022-11-20T03:25:48.597Z,5.1
2022-11-20T03:26:51.880Z,5.1
2022-11-20T03:27:54.345Z,5.2
2022-11-20T03:28:57.385Z,5.1
2022-11-20T03:30:00.810Z,5.1
2022-11-20T03:31:03.572Z,5.1
2022-11-20T03:32:06.288Z,5.1
2022-11-20T03:33:08.988Z,5.1
2022-11-20T03:34:11.960Z,5.1
2022-11-20T03:35:14.536Z,5.1
2022-11-20T03:36:17.252Z,5.1
2022-11-20T03:37:20.327Z,5.1
2022-11-20T03:38:23.165Z,5.1
2022-11-20T03:39:26.923Z,5.1
2022-11-20T03:40:29.573Z,5.1
2022-11-20T03:41:33.212Z,5.1
2022-11-20T03:42:35.991Z,5.1
2022-11-20T03:43:38.685Z,5.1
2022-11-20T03:44:41.466Z,5.1
2022-11-20T03:45:44.175Z,5.1
2022-11-20T03:46:47.034Z,5.1
2022-11-20T03:47:49.903Z,5.1
2022-11-20T03:48:53.370Z,5.1
2022-11-20T03:49:56.143Z,5.1
2022-11-20T03:50:58.850Z,5.1
2022-11-20T03:52:01.816Z,5.1
2022-11-20T03:53:04.392Z,5.1
2022-11-20T03:54:07.542Z,5.1
2022-11-20T03:55:11.029Z,5.1
2022-11-20T03:56:14.448Z,5
2022-11-20T03:57:17.324Z,5
2022-11-20T03:58:20.324Z,5
2022-11-20T03:59:24.237Z,5
2022-11-20T04:00:27.461Z,5
2022-11-20T04:01:30.071Z,5
2022-11-20T04:02:33.129Z,5
2022-11-20T04:03:36.101Z,5
2022-11-20T04:04:38.803Z,5
2022-11-20T04:05:41.777Z,5
2022-11-20T04:06:44.474Z,5
2022-11-20T04:07:46.628Z,5
2022-11-20T04:08:54.751Z,5
2022-11-20T04:09:58.190Z,5
2022-11-20T04:11:00.993Z,5
2022-11-20T04:12:03.492Z,5
2022-11-20T04:13:05.704Z,5
2022-11-20T04:14:08.285Z,5
2022-11-20T04:15:11.964Z,5
2022-11-20T04:16:14.386Z,5
2022-11-20T04:17:17.163Z,5
2022-11-20T04:18:19.726Z,5
2022-11-20T04:19:23.762Z,5
2022-11-20T04:20:26.802Z,5
2022-11-20T04:21:29.623Z,5
2022-11-20T04:22:33.242Z,5
2022-11-20T04:23:36.174Z,5
2022-11-20T04:24:39.804Z,5
2022-11-20T04:25:42.922Z,5
2022-11-20T04:26:45.977Z,5
2022-11-20T04:27:48.841Z,5
2022-11-20T04:28:50.987Z,5
2022-11-20T04:29:53.761Z,5
2022-11-20T04:30:56.538Z,5
2022-11-20T04:31:58.684Z,5
2022-11-20T04:33:01.743Z,5
2022-11-20T04:34:04.251Z,5
2022-11-20T04:35:08.241Z,5
2022-11-20T04:36:11.093Z,5
2022-11-20T04:37:14.168Z,5
2022-11-20T04:38:17.210Z,5
2022-11-20T04:39:21.967Z,5
2022-11-20T04:40:25.539Z,5
2022-11-20T04:41:28.293Z,5
2022-11-20T04:42:31.972Z,5
2022-11-20T04:43:35.301Z,5
2022-11-20T04:44:38.081Z,5
2022-11-20T04:45:40.999Z,5
2022-11-20T04:46:43.988Z,5
2022-11-20T04:47:46.771Z,5
2022-11-20T04:48:49.813Z,5
2022-11-20T04:49:52.752Z,5
2022-11-20T04:50:55.107Z,5
2022-11-20T04:51:58.794Z,5
2022-11-20T04:53:01.923Z,4.9
2022-11-20T04:54:04.340Z,5
2022-11-20T04:55:08.316Z,5
2022-11-20T04:56:11.292Z,4.9
2022-11-20T04:57:15.520Z,4.9
2022-11-20T04:58:18.386Z,5
2022-11-20T04:59:22.994Z,5
2022-11-20T05:00:27.263Z,5
2022-11-20T05:01:31.049Z,5
2022-11-20T05:02:34.015Z,5
2022-11-20T05:03:43.061Z,5
2022-11-20T05:04:46.185Z,5
2022-11-20T05:05:49.039Z,5
2022-11-20T05:06:52.083Z,5
2022-11-20T05:07:54.357Z,5
2022-11-20T05:08:56.780Z,5
2022-11-20T05:09:59.574Z,5
2022-11-20T05:11:02.069Z,5
2022-11-20T05:12:04.914Z,5
2022-11-20T05:13:07.221Z,4.9
2022-11-20T05:14:10.426Z,4.9
2022-11-20T05:15:13.484Z,4.9
2022-11-20T05:16:16.808Z,4.9
2022-11-20T05:17:20.783Z,4.9
2022-11-20T05:18:23.203Z,4.9
2022-11-20T05:19:26.691Z,4.9
2022-11-20T05:20:29.189Z,4.9
2022-11-20T05:21:32.161Z,4.9
2022-11-20T05:22:34.928Z,4.9
2022-11-20T05:23:37.505Z,4.9
2022-11-20T05:24:40.626Z,4.9
2022-11-20T05:25:42.778Z,4.9
2022-11-20T05:26:45.461Z,4.9
2022-11-20T05:27:48.427Z,4.9
2022-11-20T05:28:50.631Z,4.9
2022-11-20T05:29:53.761Z,4.9
2022-11-20T05:30:57.121Z,4.8
2022-11-20T05:31:59.951Z,4.8
2022-11-20T05:33:02.134Z,4.8
2022-11-20T05:34:05.191Z,4.8
2022-11-20T05:35:07.967Z,4.8
2022-11-20T05:36:10.746Z,4.8
2022-11-20T05:37:13.718Z,4.8
2022-11-20T05:38:16.944Z,4.8
2022-11-20T05:39:21.317Z,4.8
2022-11-20T05:40:25.020Z,4.8
2022-11-20T05:41:28.151Z,4.8
2022-11-20T05:42:31.296Z,4.8
2022-11-20T05:43:33.325Z,4.7
2022-11-20T05:44:35.337Z,4.8
2022-11-20T05:45:38.567Z,4.8
2022-11-20T05:46:41.429Z,4.7
2022-11-20T05:47:43.993Z,4.7
2022-11-20T05:48:46.875Z,4.7
2022-11-20T05:49:50.118Z,4.7
2022-11-20T05:50:53.166Z,4.7
2022-11-20T05:51:56.154Z,4.7
2022-11-20T05:52:59.828Z,4.7
2022-11-20T05:54:02.981Z,4.8
2022-11-20T05:55:05.472Z,4.7
2022-11-20T05:56:07.895Z,4.8
2022-11-20T05:57:10.671Z,4.8
2022-11-20T05:58:12.871Z,4.8
2022-11-20T05:59:15.569Z,4.8
2022-11-20T06:00:18.604Z,4.8
2022-11-20T06:01:21.973Z,4.8
2022-11-20T06:02:25.550Z,4.8
2022-11-20T06:03:28.836Z,4.8
2022-11-20T06:04:31.812Z,4.8
2022-11-20T06:05:34.943Z,4.8
2022-11-20T06:06:37.539Z,4.8
2022-11-20T06:07:40.498Z,4.8
2022-11-20T06:08:43.753Z,4.8
2022-11-20T06:09:46.785Z,4.8
2022-11-20T06:10:49.487Z,4.8
2022-11-20T06:11:52.828Z,4.8
2022-11-20T06:12:55.322Z,4.8
2022-11-20T06:13:58.646Z,4.8
2022-11-20T06:15:01.702Z,4.8
2022-11-20T06:16:05.202Z,4.8
2022-11-20T06:17:08.353Z,4.8
2022-11-20T06:18:11.156Z,4.8
2022-11-20T06:19:14.501Z,4.8
2022-11-20T06:20:17.471Z,4.8
2022-11-20T06:21:19.989Z,4.8
2022-11-20T06:22:23.674Z,4.8
2022-11-20T06:23:26.446Z,4.8
2022-11-20T06:24:29.597Z,4.8
2022-11-20T06:25:32.553Z,4.8
2022-11-20T06:26:35.802Z,4.9
2022-11-20T06:27:38.978Z,4.8
2022-11-20T06:28:41.483Z,4.8
2022-11-20T06:29:44.536Z,4.8
2022-11-20T06:30:47.240Z,4.8
2022-11-20T06:31:49.747Z,4.9
2022-11-20T06:32:52.408Z,4.8
2022-11-20T06:33:55.822Z,4.8
2022-11-20T06:34:58.239Z,4.8
2022-11-20T06:36:11.240Z,4.8
2022-11-20T06:37:13.696Z,4.8
2022-11-20T06:38:16.564Z,4.8
2022-11-20T06:39:20.027Z,4.8
2022-11-20T06:40:23.843Z,4.8
2022-11-20T06:41:26.598Z,4.8
2022-11-20T06:42:28.808Z,4.8
2022-11-20T06:43:31.860Z,4.8
2022-11-20T06:44:35.559Z,4.7
2022-11-20T06:45:38.250Z,4.8
2022-11-20T06:46:41.366Z,4.8
2022-11-20T06:47:44.496Z,4.8
2022-11-20T06:48:46.925Z,4.7
2022-11-20T06:49:49.713Z,4.7
2022-11-20T06:50:52.773Z,4.7
2022-11-20T06:51:55.261Z,4.7
2022-11-20T06:52:58.386Z,4.7
2022-11-20T06:54:00.883Z,4.7
2022-11-20T06:55:03.656Z,4.7
2022-11-20T06:56:05.951Z,4.7
2022-11-20T06:57:08.812Z,4.8
2022-11-20T06:58:11.516Z,4.7
2022-11-20T06:59:15.197Z,4.8
2022-11-20T07:00:18.627Z,4.7
2022-11-20T07:01:21.927Z,4.8
2022-11-20T07:02:24.776Z,4.8
2022-11-20T07:03:27.360Z,4.8
2022-11-20T07:04:30.430Z,4.8
2022-11-20T07:05:32.931Z,4.8
2022-11-20T07:06:35.786Z,4.8
2022-11-20T07:07:39.044Z,4.8
2022-11-20T07:08:42.578Z,4.8
2022-11-20T07:09:45.067Z,4.8
2022-11-20T07:10:48.747Z,4.8
2022-11-20T07:11:52.153Z,4.8
2022-11-20T07:12:55.641Z,4.8
2022-11-20T07:13:59.043Z,4.8
2022-11-20T07:15:02.022Z,4.8
2022-11-20T07:16:04.724Z,4.8
2022-11-20T07:17:07.574Z,4.8
2022-11-20T07:18:10.418Z,4.8
2022-11-20T07:19:12.846Z,4.8
2022-11-20T07:20:15.335Z,4.9
2022-11-20T07:21:18.663Z,4.8
2022-11-20T07:22:21.994Z,4.9
2022-11-20T07:23:24.902Z,4.9
2022-11-20T07:24:28.600Z,4.8
2022-11-20T07:25:31.575Z,4.9
2022-11-20T07:26:34.978Z,4.9
2022-11-20T07:27:37.957Z,4.9
2022-11-20T07:28:41.165Z,4.9
2022-11-20T07:29:44.213Z,4.9
2022-11-20T07:30:46.509Z,4.9
2022-11-20T07:31:48.938Z,4.9
2022-11-20T07:32:51.914Z,4.9
2022-11-20T07:33:55.038Z,4.9
2022-11-20T07:34:58.747Z,4.9
2022-11-20T07:36:01.847Z,4.9
2022-11-20T07:37:11.221Z,4.9
2022-11-20T07:38:14.540Z,4.9
2022-11-20T07:39:17.924Z,4.9
2022-11-20T07:40:20.755Z,4.9
2022-11-20T07:41:23.913Z,4.9
2022-11-20T07:42:27.346Z,4.9
2022-11-20T07:43:29.923Z,4.9
2022-11-20T07:44:33.419Z,4.9
2022-11-20T07:45:36.186Z,4.9
2022-11-20T07:46:39.894Z,4.9
2022-11-20T07:47:42.593Z,4.9
2022-11-20T07:48:45.368Z,4.9
2022-11-20T07:49:48.145Z,4.9
2022-11-20T07:50:50.636Z,4.9
2022-11-20T07:51:52.551Z,4.9
2022-11-20T07:52:55.122Z,4.9
2022-11-20T07:53:57.272Z,4.9
2022-11-20T07:54:59.497Z,4.9
2022-11-20T07:56:02.854Z,4.9
2022-11-20T07:57:05.007Z,4.9
2022-11-20T07:58:07.804Z,4.9
2022-11-20T07:59:10.592Z,4.9
2022-11-20T08:00:13.934Z,4.9
2022-11-20T08:01:16.347Z,4.8
2022-11-20T08:02:20.299Z,4.8
2022-11-20T08:03:26.144Z,4.8
2022-11-20T08:04:28.634Z,4.9
2022-11-20T08:05:31.401Z,4.9
2022-11-20T08:06:35.109Z,4.9
2022-11-20T08:07:38.101Z,4.9
2022-11-20T08:08:43.837Z,4.9
2022-11-20T08:09:47.059Z,4.9
2022-11-20T08:10:50.058Z,4.9
2022-11-20T08:11:52.564Z,4.9
2022-11-20T08:12:55.066Z,4.9
2022-11-20T08:13:57.858Z,4.9
2022-11-20T08:15:00.268Z,4.9
2022-11-20T08:16:02.759Z,4.9
2022-11-20T08:17:06.227Z,4.9
2022-11-20T08:18:33.366Z,4.9
2022-11-20T08:19:35.726Z,4.9
2022-11-20T08:20:38.858Z,4.9
2022-11-20T08:21:41.897Z,4.9
2022-11-20T08:22:44.022Z,4.9
2022-11-20T08:23:47.393Z,4.9
2022-11-20T08:24:50.543Z,4.9
2022-11-20T08:25:53.135Z,4.9
2022-11-20T08:26:55.924Z,4.9
2022-11-20T08:28:11.729Z,4.9
2022-11-20T08:29:25.383Z,4.9
2022-11-20T08:30:28.343Z,4.9
2022-11-20T08:31:31.377Z,4.9
2022-11-20T08:32:34.764Z,4.9
2022-11-20T08:33:38.073Z,4.9
2022-11-20T08:34:41.507Z,4.8
2022-11-20T08:35:44.280Z,4.8
2022-11-20T08:36:47.985Z,4.9
2022-11-20T08:37:50.836Z,4.8
2022-11-20T08:38:53.610Z,4.8
2022-11-20T08:39:56.671Z,4.8
2022-11-20T08:40:59.084Z,4.8
2022-11-20T08:42:01.588Z,4.8
2022-11-20T08:43:04.854Z,4.8
2022-11-20T08:44:07.135Z,4.8
2022-11-20T08:45:10.311Z,4.8
2022-11-20T08:46:13.119Z,4.8
2022-11-20T08:47:16.169Z,4.8
2022-11-20T08:48:19.026Z,4.8
2022-11-20T08:49:23.389Z,4.8
2022-11-20T08:50:26.721Z,4.8
2022-11-20T08:51:29.869Z,4.8
2022-11-20T08:52:40.128Z,4.8
2022-11-20T08:53:43.466Z,4.8
2022-11-20T08:54:46.263Z,4.8
2022-11-20T08:55:49.405Z,4.8
2022-11-20T08:56:52.193Z,4.8
2022-11-20T08:57:54.330Z,4.8
2022-11-20T09:00:06.596Z,4.8
2022-11-20T09:01:12.900Z,4.8
2022-11-20T09:02:15.417Z,4.8
2022-11-20T09:03:18.184Z,4.8
2022-11-20T09:04:21.614Z,4.8
2022-11-20T09:05:23.922Z,4.8
2022-11-20T09:06:27.264Z,4.8
2022-11-20T09:07:29.971Z,4.8
2022-11-20T09:08:32.548Z,4.8
2022-11-20T09:09:35.621Z,4.8
2022-11-20T09:10:38.669Z,4.8
2022-11-20T09:11:41.716Z,4.8
2022-11-20T09:12:44.563Z,4.8
2022-11-20T09:13:47.710Z,4.8
2022-11-20T09:14:55.658Z,4.8
2022-11-20T09:15:58.432Z,4.8
2022-11-20T09:17:02.036Z,4.8
2022-11-20T09:18:05.085Z,4.8
2022-11-20T09:19:36.641Z,4.8
2022-11-20T09:20:40.363Z,4.8
2022-11-20T09:21:43.520Z,4.8
2022-11-20T09:22:47.221Z,4.8
2022-11-20T09:23:50.061Z,4.8
2022-11-20T09:24:52.786Z,4.8
2022-11-20T09:25:55.495Z,4.8
2022-11-20T09:26:58.290Z,4.8
2022-11-20T09:28:00.465Z,4.8
2022-11-20T09:29:03.332Z,4.8
2022-11-20T09:30:06.755Z,4.8
2022-11-20T09:31:10.257Z,4.7
2022-11-20T09:32:12.127Z,4.8
2022-11-20T09:33:15.282Z,4.8
2022-11-20T09:34:18.046Z,4.8
2022-11-20T09:35:20.385Z,4.8
2022-11-20T09:36:24.091Z,4.8
2022-11-20T09:37:27.218Z,4.8
2022-11-20T09:38:30.248Z,4.8
2022-11-20T09:39:33.300Z,4.9
2022-11-20T09:40:36.657Z,4.9
2022-11-20T09:41:39.357Z,4.9
2022-11-20T09:42:42.167Z,4.9
2022-11-20T09:43:45.215Z,4.9
2022-11-20T09:44:48.566Z,4.9
2022-11-20T09:45:51.275Z,4.9
2022-11-20T09:46:54.962Z,4.9
2022-11-20T09:47:57.490Z,4.9
2022-11-20T09:49:00.526Z,4.9
2022-11-20T09:50:03.387Z,4.9
2022-11-20T09:51:06.171Z,4.9
2022-11-20T09:52:10.161Z,4.9
2022-11-20T09:53:13.211Z,4.9
2022-11-20T09:54:16.208Z,4.9
2022-11-20T09:55:19.889Z,4.9
2022-11-20T09:56:23.624Z,4.9
2022-11-20T09:57:27.051Z,4.9
2022-11-20T09:58:30.103Z,4.9
2022-11-20T09:59:33.358Z,4.9
2022-11-20T10:00:35.937Z,4.8
2022-11-20T10:01:39.563Z,4.8
2022-11-20T10:02:42.330Z,4.9
2022-11-20T10:03:45.099Z,4.8
2022-11-20T10:04:48.518Z,4.8
2022-11-20T10:05:51.281Z,4.8
2022-11-20T10:07:33.369Z,4.8
2022-11-20T10:08:37.907Z,4.8
2022-11-20T10:09:40.685Z,4.8
2022-11-20T10:10:53.558Z,4.9
2022-11-20T10:11:56.854Z,4.8
2022-11-20T10:13:00.213Z,4.8
2022-11-20T10:14:03.271Z,4.8
2022-11-20T10:15:06.781Z,4.9
2022-11-20T10:16:09.282Z,4.8
2022-11-20T10:17:11.891Z,4.8
2022-11-20T10:18:14.666Z,4.8
2022-11-20T10:19:17.789Z,4.8
2022-11-20T10:20:21.666Z,4.8
2022-11-20T10:21:24.977Z,4.8
2022-11-20T10:22:28.934Z,4.8
2022-11-20T10:23:31.720Z,4.8
2022-11-20T10:24:35.607Z,4.8
2022-11-20T10:25:38.687Z,4.8
2022-11-20T10:26:42.610Z,4.8
2022-11-20T10:27:45.672Z,4.7
2022-11-20T10:29:04.748Z,4.8
2022-11-20T10:30:12.438Z,4.7
2022-11-20T10:31:16.132Z,4.7
2022-11-20T10:32:19.461Z,4.7
2022-11-20T10:33:22.439Z,4.8
2022-11-20T10:34:25.213Z,4.8
2022-11-20T10:35:28.254Z,4.8
2022-11-20T10:36:31.679Z,4.8
2022-11-20T10:37:34.266Z,4.8
2022-11-20T10:38:37.790Z,4.9
2022-11-20T10:39:40.665Z,4.9
2022-11-20T10:40:43.920Z,4.9
2022-11-20T10:41:46.982Z,4.9
2022-11-20T10:42:49.963Z,4.9
2022-11-20T10:43:52.809Z,4.9
2022-11-20T10:45:00.488Z,4.9
2022-11-20T10:46:09.290Z,4.9
2022-11-20T10:47:12.472Z,4.9
2022-11-20T10:48:16.175Z,4.9
2022-11-20T10:49:20.855Z,4.9
2022-11-20T10:50:24.933Z,4.9
2022-11-20T10:51:28.169Z,4.9
2022-11-20T10:52:30.653Z,4.9
2022-11-20T10:53:33.965Z,5
2022-11-20T10:54:37.019Z,4.9
2022-11-20T10:55:39.993Z,5
2022-11-20T10:56:51.072Z,5
2022-11-20T10:57:54.451Z,5
2022-11-20T10:58:57.145Z,5.1
2022-11-20T10:59:59.922Z,5.1
2022-11-20T11:01:02.827Z,5.2
2022-11-20T11:02:06.042Z,5.2
2022-11-20T11:03:09.004Z,5.3
2022-11-20T11:04:12.148Z,5.5
2022-11-20T11:05:15.735Z,5.6
2022-11-20T11:06:18.433Z,5.7
2022-11-20T11:07:21.991Z,5.8
2022-11-20T11:08:24.958Z,5.9
2022-11-20T11:09:27.830Z,6
2022-11-20T11:10:30.810Z,6.1
2022-11-20T11:11:33.107Z,6.1
2022-11-20T11:12:35.411Z,6.2
2022-11-20T11:13:38.275Z,6.3
2022-11-20T11:14:40.695Z,6.3
2022-11-20T11:15:44.104Z,6.3
2022-11-20T11:16:47.436Z,6.4
2022-11-20T11:17:50.374Z,6.4
2022-11-20T11:18:52.805Z,6.4
2022-11-20T11:19:55.927Z,6.5
2022-11-20T11:20:58.642Z,6.5
2022-11-20T11:22:01.834Z,6.6
2022-11-20T11:23:04.813Z,6.6
2022-11-20T11:24:43.380Z,6.7
2022-11-20T11:25:46.625Z,6.7
2022-11-20T11:26:49.980Z,6.6
2022-11-20T11:27:53.326Z,6.6
2022-11-20T11:28:56.071Z,6.7
2022-11-20T11:29:58.477Z,6.7
2022-11-20T11:31:00.968Z,6.7
2022-11-20T11:32:04.278Z,6.7
2022-11-20T11:33:07.613Z,6.7
2022-11-20T11:34:10.113Z,6.7
2022-11-20T11:35:13.363Z,6.7
2022-11-20T11:36:15.564Z,6.7
2022-11-20T11:37:18.745Z,6.7
2022-11-20T11:38:21.799Z,6.7
2022-11-20T11:39:26.243Z,6.7
2022-11-20T11:40:29.605Z,6.7
2022-11-20T11:41:32.711Z,6.7
2022-11-20T11:42:36.056Z,6.7
2022-11-20T11:43:39.113Z,6.6
2022-11-20T11:44:41.628Z,6.6
2022-11-20T11:45:44.415Z,6.6
2022-11-20T11:46:47.526Z,6.5
2022-11-20T11:47:50.327Z,6.5
2022-11-20T11:48:53.585Z,6.5
2022-11-20T11:49:56.903Z,6.5
2022-11-20T11:50:59.876Z,6.5
2022-11-20T11:52:02.647Z,6.5
2022-11-20T11:53:05.701Z,6.5
2022-11-20T11:54:08.403Z,6.5
2022-11-20T11:55:12.929Z,6.5
2022-11-20T11:56:15.691Z,6.4
2022-11-20T11:57:18.201Z,6.4
2022-11-20T11:58:21.350Z,6.4
2022-11-20T11:59:26.173Z,6.4
2022-11-20T12:00:29.565Z,6.3
2022-11-20T12:01:33.943Z,6.3
2022-11-20T12:02:36.442Z,6.3
2022-11-20T12:03:39.847Z,6.3
2022-11-20T12:04:43.238Z,6.3
2022-11-20T12:05:45.455Z,6.3
2022-11-20T12:06:48.156Z,6.3
2022-11-20T12:07:51.142Z,6.3
2022-11-20T12:08:54.423Z,6.2
2022-11-20T12:09:57.129Z,6.2
2022-11-20T12:10:59.943Z,6.1
2022-11-20T12:12:03.083Z,6.1
2022-11-20T12:13:06.406Z,6.1
2022-11-20T12:14:09.815Z,6.1
2022-11-20T12:15:12.871Z,6
2022-11-20T12:16:15.029Z,6
2022-11-20T12:17:18.354Z,5.9
2022-11-20T12:18:21.333Z,5.9
2022-11-20T12:19:25.330Z,5.9
2022-11-20T12:20:29.147Z,5.8
2022-11-20T12:21:31.914Z,5.8
2022-11-20T12:22:35.007Z,5.8
2022-11-20T12:23:37.769Z,5.8
2022-11-20T12:24:39.978Z,5.8
2022-11-20T12:25:42.764Z,5.8
2022-11-20T12:26:45.331Z,5.8
2022-11-20T12:27:48.034Z,5.8
2022-11-20T12:28:50.996Z,5.8
2022-11-20T12:29:53.469Z,5.8
2022-11-20T12:30:56.223Z,5.8
2022-11-20T12:31:59.001Z,5.8
2022-11-20T12:33:01.573Z,5.8
2022-11-20T12:34:05.173Z,5.8
2022-11-20T12:35:12.298Z,5.8
2022-11-20T12:36:15.438Z,5.8
2022-11-20T12:37:18.207Z,5.8
2022-11-20T12:38:21.192Z,5.8
2022-11-20T12:39:24.881Z,5.8
2022-11-20T12:40:28.021Z,5.8
2022-11-20T12:41:30.797Z,5.7
2022-11-20T12:42:34.049Z,5.7
2022-11-20T12:43:36.510Z,5.7
2022-11-20T12:44:39.989Z,5.7
2022-11-20T12:45:43.048Z,5.7
2022-11-20T12:46:45.188Z,5.7
2022-11-20T12:47:47.895Z,5.7
2022-11-20T12:48:50.955Z,5.6
2022-11-20T12:49:53.389Z,5.6
2022-11-20T12:51:26.400Z,5.6
2022-11-20T12:52:29.785Z,5.6
2022-11-20T12:53:32.562Z,5.6
2022-11-20T12:54:35.910Z,5.6
2022-11-20T12:55:39.041Z,5.6
2022-11-20T12:56:41.493Z,5.7
2022-11-20T12:57:44.845Z,5.7
2022-11-20T12:58:47.871Z,5.7
2022-11-20T12:59:51.104Z,5.7
2022-11-20T13:00:54.076Z,5.7
2022-11-20T13:01:57.694Z,5.7
2022-11-20T13:03:01.145Z,5.8
2022-11-20T13:04:22.969Z,5.8
2022-11-20T13:05:28.733Z,5.9
2022-11-20T13:06:32.168Z,5.9
2022-11-20T13:07:36.038Z,5.9
2022-11-20T13:08:39.706Z,5.9
2022-11-20T13:09:43.323Z,6
2022-11-20T13:10:46.695Z,6
2022-11-20T13:11:49.395Z,6
2022-11-20T13:12:52.651Z,6
2022-11-20T13:13:54.867Z,6
2022-11-20T13:14:57.640Z,6
2022-11-20T13:16:00.994Z,6
2022-11-20T13:17:07.120Z,6
2022-11-20T13:18:10.624Z,6
2022-11-20T13:19:13.124Z,5.9
2022-11-20T13:20:16.101Z,5.9
2022-11-20T13:21:19.082Z,5.9
2022-11-20T13:22:22.420Z,5.9
2022-11-20T13:23:24.664Z,5.9
2022-11-20T13:24:28.330Z,5.8
2022-11-20T13:25:31.183Z,5.8
2022-11-20T13:26:34.586Z,5.8
2022-11-20T13:27:37.660Z,5.8
2022-11-20T13:28:40.718Z,5.8
2022-11-20T13:29:43.964Z,5.8
2022-11-20T13:30:47.088Z,5.8
2022-11-20T13:31:50.802Z,5.8
2022-11-20T13:32:53.793Z,5.8
2022-11-20T13:33:56.874Z,5.7
2022-11-20T13:35:00.583Z,5.7
2022-11-20T13:36:03.002Z,5.7
2022-11-20T13:37:06.199Z,5.7
2022-11-20T13:38:09.061Z,5.6
2022-11-20T13:39:12.182Z,5.6
2022-11-20T13:40:15.300Z,5.6
2022-11-20T13:41:18.735Z,5.6
2022-11-20T13:42:21.776Z,5.6
2022-11-20T13:43:24.639Z,5.6
2022-11-20T13:44:27.864Z,5.6
2022-11-20T13:45:30.555Z,5.6
2022-11-20T13:46:33.369Z,5.6
2022-11-20T13:47:35.860Z,5.6
2022-11-20T13:48:39.572Z,5.6
2022-11-20T13:49:46.095Z,5.6
2022-11-20T13:50:48.950Z,5.5
2022-11-20T13:51:52.646Z,5.5
2022-11-20T13:52:55.945Z,5.5
2022-11-20T13:53:59.611Z,5.5
2022-11-20T13:55:03.298Z,5.5
2022-11-20T13:56:06.775Z,5.5
2022-11-20T13:57:09.821Z,5.5
2022-11-20T13:58:13.217Z,5.4
2022-11-20T13:59:16.223Z,5.5
2022-11-20T14:00:19.226Z,5.5
2022-11-20T14:01:23.442Z,5.5
2022-11-20T14:02:26.995Z,5.5
2022-11-20T14:04:07.270Z,5.5
2022-11-20T14:05:10.783Z,5.4
2022-11-20T14:06:13.928Z,5.4
2022-11-20T14:07:17.513Z,5.4
2022-11-20T14:08:21.126Z,5.4
2022-11-20T14:09:23.901Z,5.4
2022-11-20T14:10:33.149Z,5.3
2022-11-20T14:11:35.672Z,5.3
2022-11-20T14:12:38.725Z,5.3
2022-11-20T14:13:42.054Z,5.3
2022-11-20T14:14:45.696Z,5.3
2022-11-20T14:15:48.823Z,5.3
2022-11-20T14:16:52.389Z,5.2
2022-11-20T14:17:55.309Z,5.2
2022-11-20T14:18:58.389Z,5.2
2022-11-20T14:20:01.757Z,5.2
2022-11-20T14:21:05.186Z,5.2
2022-11-20T14:22:07.881Z,5.1
2022-11-20T14:23:10.651Z,5.1
2022-11-20T14:24:13.701Z,5.1
2022-11-20T14:25:17.135Z,5
2022-11-20T14:26:20.270Z,5.1
2022-11-20T14:27:23.244Z,5
2022-11-20T14:28:26.930Z,5
2022-11-20T14:29:31.146Z,5
2022-11-20T14:30:35.203Z,5
2022-11-20T14:31:38.158Z,5
2022-11-20T14:32:41.129Z,5
2022-11-20T14:33:44.644Z,5
2022-11-20T14:34:47.788Z,4.9
2022-11-20T14:35:50.101Z,4.9
2022-11-20T14:36:53.149Z,4.9
2022-11-20T14:37:55.914Z,4.9
2022-11-20T14:38:59.835Z,4.9
2022-11-20T14:40:03.279Z,4.9
2022-11-20T14:41:06.940Z,4.9
2022-11-20T14:42:10.186Z,4.9
2022-11-20T14:43:13.118Z,4.9
2022-11-20T14:44:16.689Z,4.9
2022-11-20T14:45:19.797Z,4.9